sensor_id;sensor_type;location;lat;lon;timestamp;temperature;humidity
40932;DHT22;36257;46.052;12.540;2022-09-29T00:01:08;14.30;99.10
40932;DHT22;36257;46.052;12.540;2022-09-29T00:03:36;14.30;99.00
40932;DHT22;36257;46.052;12.540;2022-09-29T00:06:02;14.40;98.80
40932;DHT22;36257;46.052;12.540;2022-09-29T00:08:29;14.30;98.90
40932;DHT22;36257;46.052;12.540;2022-09-29T00:10:55;14.30;98.90
40932;DHT22;36257;46.052;12.540;2022-09-29T00:13:22;14.30;99.10
40932;DHT22;36257;46.052;12.540;2022-09-29T00:15:59;14.20;99.20
40932;DHT22;36257;46.052;12.540;2022-09-29T00:18:25;14.20;99.30
40932;DHT22;36257;46.052;12.540;2022-09-29T00:23:26;14.30;99.10
40932;DHT22;36257;46.052;12.540;2022-09-29T00:26:19;14.30;98.40
40932;DHT22;36257;46.052;12.540;2022-09-29T00:28:51;14.30;98.60
40932;DHT22;36257;46.052;12.540;2022-09-29T00:31:18;14.30;98.70
40932;DHT22;36257;46.052;12.540;2022-09-29T00:33:44;14.30;98.70
40932;DHT22;36257;46.052;12.540;2022-09-29T00:36:13;14.40;98.50
40932;DHT22;36257;46.052;12.540;2022-09-29T00:38:40;14.40;98.10
40932;DHT22;36257;46.052;12.540;2022-09-29T00:41:06;14.40;98.30
40932;DHT22;36257;46.052;12.540;2022-09-29T00:46:37;14.40;98.90
40932;DHT22;36257;46.052;12.540;2022-09-29T00:49:19;14.40;98.80
40932;DHT22;36257;46.052;12.540;2022-09-29T00:52:15;14.40;99.00
40932;DHT22;36257;46.052;12.540;2022-09-29T00:55:28;14.40;98.90
40932;DHT22;36257;46.052;12.540;2022-09-29T00:58:03;14.40;99.10
40932;DHT22;36257;46.052;12.540;2022-09-29T01:00:30;14.40;99.10
40932;DHT22;36257;46.052;12.540;2022-09-29T01:02:58;14.40;99.10
40932;DHT22;36257;46.052;12.540;2022-09-29T01:05:46;14.40;99.20
40932;DHT22;36257;46.052;12.540;2022-09-29T01:08:21;14.50;98.90
40932;DHT22;36257;46.052;12.540;2022-09-29T01:10:50;14.50;98.80
40932;DHT22;36257;46.052;12.540;2022-09-29T01:13:16;14.50;99.00
40932;DHT22;36257;46.052;12.540;2022-09-29T01:15:43;14.50;99.10
40932;DHT22;36257;46.052;12.540;2022-09-29T01:18:08;14.50;99.00
40932;DHT22;36257;46.052;12.540;2022-09-29T01:20:42;14.50;98.90
40932;DHT22;36257;46.052;12.540;2022-09-29T01:29:19;14.50;99.50
40932;DHT22;36257;46.052;12.540;2022-09-29T01:32:04;14.60;99.70
40932;DHT22;36257;46.052;12.540;2022-09-29T01:34:42;14.60;99.60
40932;DHT22;36257;46.052;12.540;2022-09-29T01:43:07;14.60;99.80
40932;DHT22;36257;46.052;12.540;2022-09-29T01:45:48;14.60;99.90
40932;DHT22;36257;46.052;12.540;2022-09-29T01:48:23;14.60;99.90
40932;DHT22;36257;46.052;12.540;2022-09-29T01:50:54;14.60;99.90
40932;DHT22;36257;46.052;12.540;2022-09-29T01:53:29;14.60;99.90
40932;DHT22;36257;46.052;12.540;2022-09-29T01:56:03;14.60;99.90
40932;DHT22;36257;46.052;12.540;2022-09-29T01:58:36;14.60;99.90
40932;DHT22;36257;46.052;12.540;2022-09-29T02:01:06;14.70;99.90
40932;DHT22;36257;46.052;12.540;2022-09-29T02:03:40;14.70;99.90
40932;DHT22;36257;46.052;12.540;2022-09-29T02:06:17;14.60;99.90
40932;DHT22;36257;46.052;12.540;2022-09-29T02:08:55;14.60;99.90
40932;DHT22;36257;46.052;12.540;2022-09-29T02:11:22;14.60;99.90
40932;DHT22;36257;46.052;12.540;2022-09-29T02:14:01;14.60;99.90
40932;DHT22;36257;46.052;12.540;2022-09-29T02:16:31;14.60;99.90
40932;DHT22;36257;46.052;12.540;2022-09-29T02:19:25;14.60;99.90
40932;DHT22;36257;46.052;12.540;2022-09-29T02:21:51;14.70;99.90
40932;DHT22;36257;46.052;12.540;2022-09-29T02:24:21;14.70;99.90
40932;DHT22;36257;46.052;12.540;2022-09-29T02:26:47;14.70;99.90
40932;DHT22;36257;46.052;12.540;2022-09-29T02:29:14;14.70;99.90
40932;DHT22;36257;46.052;12.540;2022-09-29T02:31:41;14.70;99.90
40932;DHT22;36257;46.052;12.540;2022-09-29T02:34:09;14.70;99.90
40932;DHT22;36257;46.052;12.540;2022-09-29T02:39:34;14.70;99.90
40932;DHT22;36257;46.052;12.540;2022-09-29T02:51:20;14.60;99.90
40932;DHT22;36257;46.052;12.540;2022-09-29T02:54:12;14.60;99.90
40932;DHT22;36257;46.052;12.540;2022-09-29T02:59:44;14.60;99.90
40932;DHT22;36257;46.052;12.540;2022-09-29T03:02:12;14.50;99.90
40932;DHT22;36257;46.052;12.540;2022-09-29T03:04:39;14.50;99.90
40932;DHT22;36257;46.052;12.540;2022-09-29T03:07:05;14.40;99.90
40932;DHT22;36257;46.052;12.540;2022-09-29T03:09:30;14.40;99.90
40932;DHT22;36257;46.052;12.540;2022-09-29T03:11:57;14.40;99.90
40932;DHT22;36257;46.052;12.540;2022-09-29T03:14:23;14.40;99.90
40932;DHT22;36257;46.052;12.540;2022-09-29T03:16:48;14.30;99.90
40932;DHT22;36257;46.052;12.540;2022-09-29T03:19:14;14.30;99.90
40932;DHT22;36257;46.052;12.540;2022-09-29T03:21:40;14.30;99.90
40932;DHT22;36257;46.052;12.540;2022-09-29T03:24:05;14.30;99.90
40932;DHT22;36257;46.052;12.540;2022-09-29T03:26:31;14.30;99.90
40932;DHT22;36257;46.052;12.540;2022-09-29T03:28:57;14.30;99.90
40932;DHT22;36257;46.052;12.540;2022-09-29T03:31:23;14.30;99.90
40932;DHT22;36257;46.052;12.540;2022-09-29T03:33:48;14.30;99.90
40932;DHT22;36257;46.052;12.540;2022-09-29T03:36:14;14.30;99.90
40932;DHT22;36257;46.052;12.540;2022-09-29T03:38:40;14.40;99.90
40932;DHT22;36257;46.052;12.540;2022-09-29T03:41:06;14.40;99.90
40932;DHT22;36257;46.052;12.540;2022-09-29T03:43:31;14.40;99.90
40932;DHT22;36257;46.052;12.540;2022-09-29T03:45:57;14.40;99.90
40932;DHT22;36257;46.052;12.540;2022-09-29T03:48:23;14.50;99.90
40932;DHT22;36257;46.052;12.540;2022-09-29T03:50:50;14.50;99.90
40932;DHT22;36257;46.052;12.540;2022-09-29T03:53:16;14.50;99.90
40932;DHT22;36257;46.052;12.540;2022-09-29T03:55:46;14.40;99.90
40932;DHT22;36257;46.052;12.540;2022-09-29T03:58:12;14.40;99.90
40932;DHT22;36257;46.052;12.540;2022-09-29T04:00:38;14.40;99.90
40932;DHT22;36257;46.052;12.540;2022-09-29T04:03:04;14.40;99.90
40932;DHT22;36257;46.052;12.540;2022-09-29T04:05:31;14.30;99.90
40932;DHT22;36257;46.052;12.540;2022-09-29T04:07:57;14.30;99.90
40932;DHT22;36257;46.052;12.540;2022-09-29T04:10:23;14.30;99.90
40932;DHT22;36257;46.052;12.540;2022-09-29T04:12:48;14.20;99.90
40932;DHT22;36257;46.052;12.540;2022-09-29T04:15:14;14.20;99.90
40932;DHT22;36257;46.052;12.540;2022-09-29T04:17:39;14.20;99.90
40932;DHT22;36257;46.052;12.540;2022-09-29T04:20:05;14.20;99.90
40932;DHT22;36257;46.052;12.540;2022-09-29T04:22:32;14.20;99.90
40932;DHT22;36257;46.052;12.540;2022-09-29T04:24:57;14.20;99.90
40932;DHT22;36257;46.052;12.540;2022-09-29T04:27:24;14.20;99.90
40932;DHT22;36257;46.052;12.540;2022-09-29T04:29:50;14.10;99.90
40932;DHT22;36257;46.052;12.540;2022-09-29T04:32:15;14.10;99.90
40932;DHT22;36257;46.052;12.540;2022-09-29T04:34:41;14.10;99.90
40932;DHT22;36257;46.052;12.540;2022-09-29T04:37:07;14.10;99.90
40932;DHT22;36257;46.052;12.540;2022-09-29T04:39:36;14.00;99.90
40932;DHT22;36257;46.052;12.540;2022-09-29T04:42:03;14.00;99.90
40932;DHT22;36257;46.052;12.540;2022-09-29T04:44:28;13.90;99.90
40932;DHT22;36257;46.052;12.540;2022-09-29T04:46:54;13.90;99.90
40932;DHT22;36257;46.052;12.540;2022-09-29T04:49:20;13.90;99.90
40932;DHT22;36257;46.052;12.540;2022-09-29T04:51:46;14.00;99.90
40932;DHT22;36257;46.052;12.540;2022-09-29T04:54:12;14.00;99.90
40932;DHT22;36257;46.052;12.540;2022-09-29T04:56:37;14.10;99.90
40932;DHT22;36257;46.052;12.540;2022-09-29T04:59:03;14.10;99.90
40932;DHT22;36257;46.052;12.540;2022-09-29T05:01:28;14.10;99.90
40932;DHT22;36257;46.052;12.540;2022-09-29T05:03:55;14.10;99.90
40932;DHT22;36257;46.052;12.540;2022-09-29T05:06:21;14.20;99.90
40932;DHT22;36257;46.052;12.540;2022-09-29T05:08:46;14.10;99.90
40932;DHT22;36257;46.052;12.540;2022-09-29T05:11:12;14.10;99.90
40932;DHT22;36257;46.052;12.540;2022-09-29T05:13:38;14.10;99.90
40932;DHT22;36257;46.052;12.540;2022-09-29T05:16:04;14.10;99.90
40932;DHT22;36257;46.052;12.540;2022-09-29T05:18:30;14.00;99.90
40932;DHT22;36257;46.052;12.540;2022-09-29T05:21:00;14.00;99.90
40932;DHT22;36257;46.052;12.540;2022-09-29T05:23:27;13.90;99.90
40932;DHT22;36257;46.052;12.540;2022-09-29T05:25:52;14.00;99.90
40932;DHT22;36257;46.052;12.540;2022-09-29T05:28:18;14.00;99.90
40932;DHT22;36257;46.052;12.540;2022-09-29T05:30:44;14.00;99.90
40932;DHT22;36257;46.052;12.540;2022-09-29T05:33:09;14.10;99.90
40932;DHT22;36257;46.052;12.540;2022-09-29T05:35:35;14.10;99.90
40932;DHT22;36257;46.052;12.540;2022-09-29T05:38:01;14.10;99.90
40932;DHT22;36257;46.052;12.540;2022-09-29T05:40:26;14.10;99.90
40932;DHT22;36257;46.052;12.540;2022-09-29T05:42:52;14.20;99.90
40932;DHT22;36257;46.052;12.540;2022-09-29T05:45:18;14.30;99.90
40932;DHT22;36257;46.052;12.540;2022-09-29T05:47:44;14.30;99.90
40932;DHT22;36257;46.052;12.540;2022-09-29T05:50:10;14.30;99.90
40932;DHT22;36257;46.052;12.540;2022-09-29T05:52:37;14.40;99.90
40932;DHT22;36257;46.052;12.540;2022-09-29T05:55:03;14.40;99.90
40932;DHT22;36257;46.052;12.540;2022-09-29T05:57:29;14.40;99.90
40932;DHT22;36257;46.052;12.540;2022-09-29T05:59:54;14.50;99.90
40932;DHT22;36257;46.052;12.540;2022-09-29T06:02:20;14.50;99.90
40932;DHT22;36257;46.052;12.540;2022-09-29T06:04:46;14.60;99.90
40932;DHT22;36257;46.052;12.540;2022-09-29T06:07:12;14.60;99.90
40932;DHT22;36257;46.052;12.540;2022-09-29T06:09:38;14.70;99.90
40932;DHT22;36257;46.052;12.540;2022-09-29T06:12:03;14.60;99.90
40932;DHT22;36257;46.052;12.540;2022-09-29T06:14:29;14.60;99.90
40932;DHT22;36257;46.052;12.540;2022-09-29T06:16:54;14.60;99.90
40932;DHT22;36257;46.052;12.540;2022-09-29T06:19:20;14.60;99.90
40932;DHT22;36257;46.052;12.540;2022-09-29T06:21:48;14.60;99.90
40932;DHT22;36257;46.052;12.540;2022-09-29T06:24:14;14.60;99.90
40932;DHT22;36257;46.052;12.540;2022-09-29T06:26:40;14.70;99.90
40932;DHT22;36257;46.052;12.540;2022-09-29T06:29:05;14.80;99.90
40932;DHT22;36257;46.052;12.540;2022-09-29T06:31:31;14.80;99.90
40932;DHT22;36257;46.052;12.540;2022-09-29T06:33:59;14.90;99.90
40932;DHT22;36257;46.052;12.540;2022-09-29T06:36:37;15.00;99.90
40932;DHT22;36257;46.052;12.540;2022-09-29T06:39:22;15.10;99.90
40932;DHT22;36257;46.052;12.540;2022-09-29T06:41:48;15.30;99.90
40932;DHT22;36257;46.052;12.540;2022-09-29T06:44:22;15.50;99.90
40932;DHT22;36257;46.052;12.540;2022-09-29T06:46:51;15.70;99.90
40932;DHT22;36257;46.052;12.540;2022-09-29T06:49:18;16.00;99.90
40932;DHT22;36257;46.052;12.540;2022-09-29T06:51:44;16.30;99.90
40932;DHT22;36257;46.052;12.540;2022-09-29T06:54:14;16.70;96.70
40932;DHT22;36257;46.052;12.540;2022-09-29T06:56:41;17.10;96.00
40932;DHT22;36257;46.052;12.540;2022-09-29T06:59:07;17.30;94.20
40932;DHT22;36257;46.052;12.540;2022-09-29T07:01:33;17.50;94.70
40932;DHT22;36257;46.052;12.540;2022-09-29T07:03:59;17.80;93.70
40932;DHT22;36257;46.052;12.540;2022-09-29T07:06:26;18.00;94.00
40932;DHT22;36257;46.052;12.540;2022-09-29T07:08:54;18.30;92.10
40932;DHT22;36257;46.052;12.540;2022-09-29T07:11:20;18.40;91.70
40932;DHT22;36257;46.052;12.540;2022-09-29T07:13:46;18.50;91.40
40932;DHT22;36257;46.052;12.540;2022-09-29T07:16:12;18.50;91.40
40932;DHT22;36257;46.052;12.540;2022-09-29T07:18:39;18.50;91.10
40932;DHT22;36257;46.052;12.540;2022-09-29T07:21:08;18.60;91.30
40932;DHT22;36257;46.052;12.540;2022-09-29T07:23:35;18.80;88.20
40932;DHT22;36257;46.052;12.540;2022-09-29T07:26:01;19.10;89.30
40932;DHT22;36257;46.052;12.540;2022-09-29T07:28:28;19.30;89.30
40932;DHT22;36257;46.052;12.540;2022-09-29T07:30:58;19.50;88.10
40932;DHT22;36257;46.052;12.540;2022-09-29T07:33:24;19.70;87.80
40932;DHT22;36257;46.052;12.540;2022-09-29T07:35:53;19.90;87.60
40932;DHT22;36257;46.052;12.540;2022-09-29T07:38:19;20.10;87.10
40932;DHT22;36257;46.052;12.540;2022-09-29T07:40:45;20.30;86.30
40932;DHT22;36257;46.052;12.540;2022-09-29T07:43:10;20.20;84.80
40932;DHT22;36257;46.052;12.540;2022-09-29T07:45:36;20.20;85.90
40932;DHT22;36257;46.052;12.540;2022-09-29T07:48:02;20.10;85.10
40932;DHT22;36257;46.052;12.540;2022-09-29T07:50:28;19.90;85.10
40932;DHT22;36257;46.052;12.540;2022-09-29T07:52:54;19.80;85.40
40932;DHT22;36257;46.052;12.540;2022-09-29T07:55:19;19.60;86.80
40932;DHT22;36257;46.052;12.540;2022-09-29T07:57:48;19.40;87.40
40932;DHT22;36257;46.052;12.540;2022-09-29T08:00:14;19.30;88.30
40932;DHT22;36257;46.052;12.540;2022-09-29T08:02:42;19.20;88.30
40932;DHT22;36257;46.052;12.540;2022-09-29T08:05:08;19.10;89.00
40932;DHT22;36257;46.052;12.540;2022-09-29T08:07:34;19.00;89.60
40932;DHT22;36257;46.052;12.540;2022-09-29T08:09:59;18.90;89.90
40932;DHT22;36257;46.052;12.540;2022-09-29T08:12:25;18.90;90.30
40932;DHT22;36257;46.052;12.540;2022-09-29T08:14:51;18.80;90.80
40932;DHT22;36257;46.052;12.540;2022-09-29T08:17:17;18.80;91.20
40932;DHT22;36257;46.052;12.540;2022-09-29T08:19:42;18.80;91.90
40932;DHT22;36257;46.052;12.540;2022-09-29T08:22:08;18.80;92.20
40932;DHT22;36257;46.052;12.540;2022-09-29T08:24:34;18.70;92.60
40932;DHT22;36257;46.052;12.540;2022-09-29T08:27:02;18.70;93.00
40932;DHT22;36257;46.052;12.540;2022-09-29T08:29:32;18.70;93.40
40932;DHT22;36257;46.052;12.540;2022-09-29T08:31:58;18.60;92.90
40932;DHT22;36257;46.052;12.540;2022-09-29T08:34:23;18.60;93.30
40932;DHT22;36257;46.052;12.540;2022-09-29T08:36:49;18.60;93.70
40932;DHT22;36257;46.052;12.540;2022-09-29T08:39:16;18.60;93.40
40932;DHT22;36257;46.052;12.540;2022-09-29T08:44:25;18.60;93.30
40932;DHT22;36257;46.052;12.540;2022-09-29T08:47:19;18.70;92.70
40932;DHT22;36257;46.052;12.540;2022-09-29T08:50:13;18.70;93.80
40932;DHT22;36257;46.052;12.540;2022-09-29T08:52:43;18.70;94.00
40932;DHT22;36257;46.052;12.540;2022-09-29T08:57:41;18.80;95.90
40932;DHT22;36257;46.052;12.540;2022-09-29T09:00:16;18.80;94.80
40932;DHT22;36257;46.052;12.540;2022-09-29T09:22:24;18.70;95.70
40932;DHT22;36257;46.052;12.540;2022-09-29T09:27:38;18.60;96.60
40932;DHT22;36257;46.052;12.540;2022-09-29T09:30:25;18.50;97.10
40932;DHT22;36257;46.052;12.540;2022-09-29T09:32:58;18.50;98.60
40932;DHT22;36257;46.052;12.540;2022-09-29T09:36:12;18.40;99.00
40932;DHT22;36257;46.052;12.540;2022-09-29T09:38:40;17.80;99.90
40932;DHT22;36257;46.052;12.540;2022-09-29T09:41:09;17.80;99.90
40932;DHT22;36257;46.052;12.540;2022-09-29T09:43:42;17.60;99.90
40932;DHT22;36257;46.052;12.540;2022-09-29T09:48:57;17.40;99.90
40932;DHT22;36257;46.052;12.540;2022-09-29T09:54:29;17.20;99.90
40932;DHT22;36257;46.052;12.540;2022-09-29T10:02:30;16.70;99.90
40932;DHT22;36257;46.052;12.540;2022-09-29T10:04:56;16.60;99.90
40932;DHT22;36257;46.052;12.540;2022-09-29T10:07:24;16.60;99.90
40932;DHT22;36257;46.052;12.540;2022-09-29T10:09:50;16.60;99.90
40932;DHT22;36257;46.052;12.540;2022-09-29T10:12:18;16.60;99.90
40932;DHT22;36257;46.052;12.540;2022-09-29T10:14:47;16.60;99.90
40932;DHT22;36257;46.052;12.540;2022-09-29T10:17:15;16.60;99.90
40932;DHT22;36257;46.052;12.540;2022-09-29T10:19:52;16.70;99.90
40932;DHT22;36257;46.052;12.540;2022-09-29T10:22:18;16.80;99.90
40932;DHT22;36257;46.052;12.540;2022-09-29T10:24:44;16.80;99.90
40932;DHT22;36257;46.052;12.540;2022-09-29T10:27:10;16.70;99.90
40932;DHT22;36257;46.052;12.540;2022-09-29T10:29:44;16.60;99.90
40932;DHT22;36257;46.052;12.540;2022-09-29T10:32:25;16.50;99.90
40932;DHT22;36257;46.052;12.540;2022-09-29T10:35:14;16.40;99.90
40932;DHT22;36257;46.052;12.540;2022-09-29T10:37:46;16.20;99.90
40932;DHT22;36257;46.052;12.540;2022-09-29T10:40:18;16.20;99.90
40932;DHT22;36257;46.052;12.540;2022-09-29T10:42:47;16.20;99.90
40932;DHT22;36257;46.052;12.540;2022-09-29T10:45:22;16.20;99.90
40932;DHT22;36257;46.052;12.540;2022-09-29T10:50:36;16.50;99.90
40932;DHT22;36257;46.052;12.540;2022-09-29T10:55:52;16.70;99.90
40932;DHT22;36257;46.052;12.540;2022-09-29T11:00:48;16.80;99.90
40932;DHT22;36257;46.052;12.540;2022-09-29T11:03:25;17.00;99.90
40932;DHT22;36257;46.052;12.540;2022-09-29T11:06:02;17.00;99.90
40932;DHT22;36257;46.052;12.540;2022-09-29T11:08:29;17.10;99.90
40932;DHT22;36257;46.052;12.540;2022-09-29T11:11:28;17.40;99.90
40932;DHT22;36257;46.052;12.540;2022-09-29T11:13:55;17.60;99.90
40932;DHT22;36257;46.052;12.540;2022-09-29T11:16:36;17.80;99.90
40932;DHT22;36257;46.052;12.540;2022-09-29T11:19:13;18.00;99.90
40932;DHT22;36257;46.052;12.540;2022-09-29T11:22:09;18.30;99.90
40932;DHT22;36257;46.052;12.540;2022-09-29T11:25:12;18.50;99.90
40932;DHT22;36257;46.052;12.540;2022-09-29T11:28:01;18.70;99.90
40932;DHT22;36257;46.052;12.540;2022-09-29T11:36:37;18.90;98.80
40932;DHT22;36257;46.052;12.540;2022-09-29T11:39:15;18.80;99.00
40932;DHT22;36257;46.052;12.540;2022-09-29T11:50:29;18.70;99.90
40932;DHT22;36257;46.052;12.540;2022-09-29T11:55:58;18.60;99.90
40932;DHT22;36257;46.052;12.540;2022-09-29T12:04:20;18.50;99.40
40932;DHT22;36257;46.052;12.540;2022-09-29T12:12:17;19.00;99.90
40932;DHT22;36257;46.052;12.540;2022-09-29T12:17:35;20.60;97.40
40932;DHT22;36257;46.052;12.540;2022-09-29T12:20:12;20.80;93.60
40932;DHT22;36257;46.052;12.540;2022-09-29T12:22:39;20.80;95.20
40932;DHT22;36257;46.052;12.540;2022-09-29T12:25:05;20.70;93.40
40932;DHT22;36257;46.052;12.540;2022-09-29T12:27:39;20.40;93.00
40932;DHT22;36257;46.052;12.540;2022-09-29T12:30:28;20.10;94.60
40932;DHT22;36257;46.052;12.540;2022-09-29T12:36:07;19.90;95.10
40932;DHT22;36257;46.052;12.540;2022-09-29T12:38:59;19.80;97.10
40932;DHT22;36257;46.052;12.540;2022-09-29T12:41:30;19.60;97.50
40932;DHT22;36257;46.052;12.540;2022-09-29T12:44:16;19.90;95.80
40932;DHT22;36257;46.052;12.540;2022-09-29T12:46:52;20.10;95.90
40932;DHT22;36257;46.052;12.540;2022-09-29T12:52:12;21.10;94.70
40932;DHT22;36257;46.052;12.540;2022-09-29T12:55:04;22.00;91.40
40932;DHT22;36257;46.052;12.540;2022-09-29T12:57:36;22.60;88.70
40932;DHT22;36257;46.052;12.540;2022-09-29T13:00:07;23.10;86.70
40932;DHT22;36257;46.052;12.540;2022-09-29T13:05:53;23.90;84.50
40932;DHT22;36257;46.052;12.540;2022-09-29T13:11:48;24.60;80.20
40932;DHT22;36257;46.052;12.540;2022-09-29T13:17:33;24.80;79.70
40932;DHT22;36257;46.052;12.540;2022-09-29T13:28:55;24.20;77.90
40932;DHT22;36257;46.052;12.540;2022-09-29T13:31:26;23.60;78.30
40932;DHT22;36257;46.052;12.540;2022-09-29T13:33:58;23.00;80.20
40932;DHT22;36257;46.052;12.540;2022-09-29T13:36:38;22.70;83.30
40932;DHT22;36257;46.052;12.540;2022-09-29T13:39:06;22.40;83.30
40932;DHT22;36257;46.052;12.540;2022-09-29T13:41:42;22.20;84.20
40932;DHT22;36257;46.052;12.540;2022-09-29T13:46:43;21.80;85.40
40932;DHT22;36257;46.052;12.540;2022-09-29T13:49:13;21.70;86.00
40932;DHT22;36257;46.052;12.540;2022-09-29T13:54:38;21.50;87.80
40932;DHT22;36257;46.052;12.540;2022-09-29T14:02:29;21.40;87.20
40932;DHT22;36257;46.052;12.540;2022-09-29T14:04:57;21.40;88.50
40932;DHT22;36257;46.052;12.540;2022-09-29T14:10:28;21.40;88.60
40932;DHT22;36257;46.052;12.540;2022-09-29T14:13:10;21.20;88.00
40932;DHT22;36257;46.052;12.540;2022-09-29T14:15:41;21.20;88.00
40932;DHT22;36257;46.052;12.540;2022-09-29T14:21:03;21.00;89.50
40932;DHT22;36257;46.052;12.540;2022-09-29T14:29:15;20.60;89.30
40932;DHT22;36257;46.052;12.540;2022-09-29T14:31:45;20.50;90.50
40932;DHT22;36257;46.052;12.540;2022-09-29T14:34:14;20.50;90.80
40932;DHT22;36257;46.052;12.540;2022-09-29T14:36:41;20.50;90.40
40932;DHT22;36257;46.052;12.540;2022-09-29T14:39:13;20.50;90.10
40932;DHT22;36257;46.052;12.540;2022-09-29T14:41:44;20.50;90.30
40932;DHT22;36257;46.052;12.540;2022-09-29T14:44:31;20.60;90.40
40932;DHT22;36257;46.052;12.540;2022-09-29T14:59:04;20.40;88.90
40932;DHT22;36257;46.052;12.540;2022-09-29T15:01:42;20.30;89.10
40932;DHT22;36257;46.052;12.540;2022-09-29T15:04:21;20.20;89.30
40932;DHT22;36257;46.052;12.540;2022-09-29T15:06:49;20.10;90.30
40932;DHT22;36257;46.052;12.540;2022-09-29T15:09:23;19.90;90.30
40932;DHT22;36257;46.052;12.540;2022-09-29T15:11:51;19.80;90.80
40932;DHT22;36257;46.052;12.540;2022-09-29T15:14:24;19.70;91.10
40932;DHT22;36257;46.052;12.540;2022-09-29T15:22:41;19.50;90.80
40932;DHT22;36257;46.052;12.540;2022-09-29T15:25:23;19.40;90.90
40932;DHT22;36257;46.052;12.540;2022-09-29T15:27:59;19.30;91.90
40932;DHT22;36257;46.052;12.540;2022-09-29T15:30:26;19.20;92.70
40932;DHT22;36257;46.052;12.540;2022-09-29T15:33:11;19.10;93.20
40932;DHT22;36257;46.052;12.540;2022-09-29T15:35:42;19.00;94.00
40932;DHT22;36257;46.052;12.540;2022-09-29T15:40:35;18.90;96.40
40932;DHT22;36257;46.052;12.540;2022-09-29T15:43:22;18.80;97.70
40932;DHT22;36257;46.052;12.540;2022-09-29T15:45:57;18.60;98.70
40932;DHT22;36257;46.052;12.540;2022-09-29T15:48:24;18.60;98.70
40932;DHT22;36257;46.052;12.540;2022-09-29T15:50:51;18.50;98.20
40932;DHT22;36257;46.052;12.540;2022-09-29T15:53:20;18.50;98.80
40932;DHT22;36257;46.052;12.540;2022-09-29T15:55:46;18.50;98.90
40932;DHT22;36257;46.052;12.540;2022-09-29T15:58:41;18.50;98.90
40932;DHT22;36257;46.052;12.540;2022-09-29T16:01:11;18.40;99.10
40932;DHT22;36257;46.052;12.540;2022-09-29T16:06:28;18.30;99.30
40932;DHT22;36257;46.052;12.540;2022-09-29T16:08:59;18.30;99.30
40932;DHT22;36257;46.052;12.540;2022-09-29T16:11:36;18.20;99.10
40932;DHT22;36257;46.052;12.540;2022-09-29T16:14:09;18.10;99.20
40932;DHT22;36257;46.052;12.540;2022-09-29T16:16:41;18.00;98.90
40932;DHT22;36257;46.052;12.540;2022-09-29T16:19:19;18.00;98.50
40932;DHT22;36257;46.052;12.540;2022-09-29T16:21:51;17.90;99.20
40932;DHT22;36257;46.052;12.540;2022-09-29T16:24:19;17.90;99.60
40932;DHT22;36257;46.052;12.540;2022-09-29T16:26:49;17.80;99.90
40932;DHT22;36257;46.052;12.540;2022-09-29T16:29:23;17.80;99.90
40932;DHT22;36257;46.052;12.540;2022-09-29T16:31:52;17.70;99.90
40932;DHT22;36257;46.052;12.540;2022-09-29T16:39:24;17.50;99.90
40932;DHT22;36257;46.052;12.540;2022-09-29T16:41:52;17.40;99.90
40932;DHT22;36257;46.052;12.540;2022-09-29T16:44:30;17.40;99.90
40932;DHT22;36257;46.052;12.540;2022-09-29T16:47:15;17.30;99.90
40932;DHT22;36257;46.052;12.540;2022-09-29T16:49:50;17.00;99.90
40932;DHT22;36257;46.052;12.540;2022-09-29T16:52:31;16.70;99.90
40932;DHT22;36257;46.052;12.540;2022-09-29T16:58:03;16.60;99.90
40932;DHT22;36257;46.052;12.540;2022-09-29T17:00:29;16.60;99.90
40932;DHT22;36257;46.052;12.540;2022-09-29T17:02:56;16.60;99.90
40932;DHT22;36257;46.052;12.540;2022-09-29T17:05:34;16.60;99.90
40932;DHT22;36257;46.052;12.540;2022-09-29T17:08:01;16.60;99.90
40932;DHT22;36257;46.052;12.540;2022-09-29T17:10:28;16.50;99.90
40932;DHT22;36257;46.052;12.540;2022-09-29T17:12:54;16.50;99.90
40932;DHT22;36257;46.052;12.540;2022-09-29T17:15:20;16.50;99.90
40932;DHT22;36257;46.052;12.540;2022-09-29T17:17:48;16.40;99.90
40932;DHT22;36257;46.052;12.540;2022-09-29T17:20:18;16.30;99.90
40932;DHT22;36257;46.052;12.540;2022-09-29T17:22:44;16.30;99.90
40932;DHT22;36257;46.052;12.540;2022-09-29T17:25:11;16.30;99.90
40932;DHT22;36257;46.052;12.540;2022-09-29T17:27:37;16.20;99.90
40932;DHT22;36257;46.052;12.540;2022-09-29T17:30:22;16.20;99.90
40932;DHT22;36257;46.052;12.540;2022-09-29T17:32:50;16.10;99.90
40932;DHT22;36257;46.052;12.540;2022-09-29T17:35:17;16.00;99.90
40932;DHT22;36257;46.052;12.540;2022-09-29T17:37:43;16.00;99.90
40932;DHT22;36257;46.052;12.540;2022-09-29T17:40:16;16.00;99.90
40932;DHT22;36257;46.052;12.540;2022-09-29T17:42:42;16.00;99.90
40932;DHT22;36257;46.052;12.540;2022-09-29T17:45:12;15.80;99.90
40932;DHT22;36257;46.052;12.540;2022-09-29T17:47:41;15.80;99.90
40932;DHT22;36257;46.052;12.540;2022-09-29T17:50:28;15.80;99.90
40932;DHT22;36257;46.052;12.540;2022-09-29T17:52:56;15.70;99.90
40932;DHT22;36257;46.052;12.540;2022-09-29T17:55:25;15.60;99.90
40932;DHT22;36257;46.052;12.540;2022-09-29T17:57:52;15.60;99.90
40932;DHT22;36257;46.052;12.540;2022-09-29T18:00:35;15.40;99.90
40932;DHT22;36257;46.052;12.540;2022-09-29T18:03:03;15.30;99.90
40932;DHT22;36257;46.052;12.540;2022-09-29T18:05:30;15.30;99.90
40932;DHT22;36257;46.052;12.540;2022-09-29T18:07:58;15.30;99.90
40932;DHT22;36257;46.052;12.540;2022-09-29T18:13:07;15.40;99.90
40932;DHT22;36257;46.052;12.540;2022-09-29T18:15:34;15.30;99.90
40932;DHT22;36257;46.052;12.540;2022-09-29T18:18:01;15.30;99.90
40932;DHT22;36257;46.052;12.540;2022-09-29T18:20:29;15.30;99.90
40932;DHT22;36257;46.052;12.540;2022-09-29T18:22:56;15.30;99.90
40932;DHT22;36257;46.052;12.540;2022-09-29T18:25:27;15.30;99.90
40932;DHT22;36257;46.052;12.540;2022-09-29T18:27:53;15.40;99.90
40932;DHT22;36257;46.052;12.540;2022-09-29T18:32:51;15.50;99.90
40932;DHT22;36257;46.052;12.540;2022-09-29T18:35:24;15.50;99.90
40932;DHT22;36257;46.052;12.540;2022-09-29T18:37:50;15.50;99.90
40932;DHT22;36257;46.052;12.540;2022-09-29T18:40:17;15.50;99.90
40932;DHT22;36257;46.052;12.540;2022-09-29T18:42:45;15.40;99.90
40932;DHT22;36257;46.052;12.540;2022-09-29T18:45:14;15.30;99.90
40932;DHT22;36257;46.052;12.540;2022-09-29T18:47:43;15.20;99.90
40932;DHT22;36257;46.052;12.540;2022-09-29T18:50:18;15.10;99.90